Time;durP1;ratioP1;P1;durP2;ratioP2;P2;SDS_P1;SDS_P2;PMS_P1;PMS_P2;Temp;Humidity;BMP_temperature;BMP_pressure;BME280_temperature;BME280_humidity;BME280_pressure;Samples;Min_cycle;Max_cycle;Signal;HPM_P1;HPM_P2
2023/10/06 00:00:52;;;;;;;4.32;2.15;;;13.30;99.90;;;;;;5223195;28;20050;-65
2023/10/06 00:03:26;;;;;;;3.90;2.03;;;13.20;1.00;;;;;;5210772;28;20260;-66
2023/10/06 00:05:58;;;;;;;7.78;2.55;;;13.20;1.00;;;;;;5194836;28;20035;-65
2023/10/06 00:08:40;;;;;;;3.75;1.73;;;13.20;1.00;;;;;;5193978;28;20103;-66
2023/10/06 00:11:15;;;;;;;4.30;2.50;;;13.10;1.00;;;;;;5210017;28;20044;-66
2023/10/06 00:13:52;;;;;;;3.83;2.10;;;13.10;1.00;;;;;;5219973;28;20035;-65
2023/10/06 00:16:23;;;;;;;3.38;2.30;;;13.10;1.00;;;;;;5210172;28;20051;-65
2023/10/06 00:18:59;;;;;;;3.67;2.13;;;13.10;1.00;;;;;;5195402;28;20032;-66
2023/10/06 00:21:46;;;;;;;3.92;2.45;;;13.10;1.00;;;;;;5215609;28;20097;-66
2023/10/06 00:24:17;;;;;;;3.13;2.15;;;13.00;1.00;;;;;;5194749;28;20040;-67
2023/10/06 00:26:55;;;;;;;4.63;2.47;;;13.00;1.00;;;;;;5230381;28;20033;-65
2023/10/06 00:29:29;;;;;;;4.93;2.30;;;12.90;1.00;;;;;;5214157;28;20040;-66
2023/10/06 00:32:21;;;;;;;7.55;2.03;;;12.90;96.90;;;;;;5210515;28;20066;-66
2023/10/06 00:35:09;;;;;;;3.80;2.30;;;12.90;99.90;;;;;;5210492;28;20045;-65
2023/10/06 00:37:42;;;;;;;5.65;2.40;;;12.90;99.90;;;;;;5157528;28;20043;-65
2023/10/06 00:40:19;;;;;;;6.43;2.45;;;12.90;99.90;;;;;;5194708;28;20036;-66
2023/10/06 00:43:05;;;;;;;4.63;2.45;;;12.90;99.90;;;;;;5213778;28;20146;-65
2023/10/06 00:45:44;;;;;;;6.78;2.70;;;12.90;99.90;;;;;;5180252;28;20059;-68
2023/10/06 00:48:15;;;;;;;4.43;2.50;;;12.80;99.90;;;;;;5231128;28;20044;-66
2023/10/06 00:50:50;;;;;;;4.72;2.55;;;12.80;99.90;;;;;;5211328;28;20055;-67
2023/10/06 00:53:30;;;;;;;2.97;2.05;;;12.80;99.90;;;;;;5196366;28;20036;-67
2023/10/06 00:56:10;;;;;;;3.65;2.45;;;12.80;99.90;;;;;;5206270;28;20044;-67
2023/10/06 00:58:42;;;;;;;4.78;2.60;;;12.70;99.90;;;;;;5221051;28;20333;-68
2023/10/06 01:01:17;;;;;;;4.47;2.30;;;12.70;99.90;;;;;;5269201;22;20048;-94
2023/10/06 01:06:42;;;;;;;5.10;2.17;;;12.80;99.90;;;;;;5183164;28;20040;-90
2023/10/06 01:09:17;;;;;;;4.75;2.15;;;12.80;99.90;;;;;;5150566;28;20029;-90
2023/10/06 01:11:55;;;;;;;3.17;2.00;;;12.90;99.90;;;;;;5183568;28;20033;-91
2023/10/06 01:14:34;;;;;;;3.45;2.10;;;12.90;99.90;;;;;;5150357;28;20056;-91
2023/10/06 01:17:17;;;;;;;9.15;3.13;;;12.90;99.90;;;;;;5166807;28;20056;-92
2023/10/06 01:19:53;;;;;;;4.35;2.65;;;12.80;99.90;;;;;;5183671;28;20033;-93
2023/10/06 01:22:26;;;;;;;3.05;2.53;;;12.80;99.90;;;;;;5152609;28;20331;-91
2023/10/06 01:25:03;;;;;;;5.70;2.85;;;12.70;1.00;;;;;;5167110;28;20071;-90
2023/10/06 01:27:35;;;;;;;6.47;2.60;;;12.70;1.00;;;;;;5167422;28;20078;-90
2023/10/06 01:30:17;;;;;;;6.18;2.72;;;12.70;1.00;;;;;;5167166;28;20034;-89
2023/10/06 01:32:50;;;;;;;4.72;2.60;;;12.70;1.00;;;;;;5166849;28;20034;-91
2023/10/06 01:35:23;;;;;;;4.10;1.77;;;12.70;1.00;;;;;;5166856;28;20033;-91
2023/10/06 01:38:00;;;;;;;3.88;1.90;;;12.80;1.00;;;;;;5167184;28;20048;-90
2023/10/06 01:43:10;;;;;;;4.05;2.05;;;12.90;99.90;;;;;;5172192;28;20052;-90
2023/10/06 01:45:45;;;;;;;3.40;2.03;;;12.90;99.90;;;;;;5177649;28;20045;-90
2023/10/06 01:48:22;;;;;;;5.43;2.15;;;12.90;99.90;;;;;;5161209;28;20060;-90
2023/10/06 01:50:54;;;;;;;2.95;2.35;;;12.90;99.90;;;;;;5175714;28;20037;-91
2023/10/06 01:53:32;;;;;;;4.30;2.40;;;12.80;99.90;;;;;;5193083;28;20042;-90
2023/10/06 01:56:10;;;;;;;7.13;3.10;;;12.80;1.00;;;;;;5177419;28;20052;-92
2023/10/06 01:58:44;;;;;;;5.30;2.60;;;12.80;1.00;;;;;;5160712;28;20092;-91
2023/10/06 02:01:19;;;;;;;6.93;2.42;;;12.80;1.00;;;;;;5176485;28;20064;-92
2023/10/06 02:04:14;;;;;;;6.80;2.65;;;12.70;1.00;;;;;;5188210;28;20032;-91
2023/10/06 02:06:48;;;;;;;5.70;2.03;;;12.70;1.00;;;;;;5160338;28;20048;-90
2023/10/06 02:09:25;;;;;;;4.03;2.35;;;12.60;1.00;;;;;;5160260;28;20038;-92
2023/10/06 02:12:00;;;;;;;2.85;2.13;;;12.60;1.00;;;;;;5175666;28;20462;-90
2023/10/06 02:14:41;;;;;;;4.90;2.40;;;12.60;1.00;;;;;;5175535;28;20116;-91
2023/10/06 02:17:22;;;;;;;5.35;2.60;;;12.60;1.00;;;;;;5174830;28;20114;-90
2023/10/06 02:20:00;;;;;;;6.28;3.22;;;12.50;1.00;;;;;;5159472;28;20056;-90
2023/10/06 02:22:32;;;;;;;5.05;2.47;;;12.50;1.00;;;;;;5158286;28;20030;-91
2023/10/06 02:25:15;;;;;;;6.50;2.55;;;12.40;1.00;;;;;;5171394;28;20042;-91
2023/10/06 02:27:50;;;;;;;4.35;2.60;;;12.30;1.00;;;;;;5155105;28;20048;-91
2023/10/06 02:30:33;;;;;;;4.63;2.70;;;12.20;68.00;;;;;;5153906;28;20034;-91
2023/10/06 02:33:05;;;;;;;7.95;2.70;;;12.20;99.90;;;;;;5172418;28;20041;-92
2023/10/06 02:35:48;;;;;;;6.80;2.47;;;12.10;99.90;;;;;;5152473;28;20048;-89
2023/10/06 02:38:20;;;;;;;4.97;2.53;;;12.00;99.90;;;;;;5154198;28;20038;-92
2023/10/06 02:40:56;;;;;;;6.82;2.75;;;12.00;99.90;;;;;;5152725;28;20048;-91
2023/10/06 02:43:33;;;;;;;5.38;2.70;;;12.00;99.90;;;;;;5169417;28;20101;-91
2023/10/06 02:46:08;;;;;;;5.38;2.58;;;11.90;99.90;;;;;;5168183;28;20102;-90
2023/10/06 02:48:48;;;;;;;3.15;2.60;;;11.90;99.90;;;;;;5151807;28;20048;-91
2023/10/06 02:51:32;;;;;;;6.07;2.38;;;11.80;1.00;;;;;;5153501;28;20034;-92
2023/10/06 02:56:46;;;;;;;5.35;2.70;;;11.90;1.00;;;;;;5166777;28;20037;-91
2023/10/06 02:59:21;;;;;;;8.98;3.28;;;12.00;1.00;;;;;;5165511;28;20059;-91
2023/10/06 03:02:06;;;;;;;4.13;2.70;;;12.00;1.00;;;;;;5163167;28;20045;-90
2023/10/06 03:04:43;;;;;;;4.72;2.70;;;11.90;1.00;;;;;;5149032;28;20030;-91
2023/10/06 03:07:22;;;;;;;3.88;2.53;;;11.90;1.00;;;;;;5138875;28;20084;-90
2023/10/06 03:09:56;;;;;;;5.85;2.60;;;11.90;1.00;;;;;;5134585;28;20048;-90
2023/10/06 03:12:32;;;;;;;6.60;2.97;;;11.90;1.00;;;;;;5134181;28;20056;-90
2023/10/06 03:15:09;;;;;;;4.43;2.63;;;11.90;1.00;;;;;;5152313;28;20042;-89
2023/10/06 03:17:41;;;;;;;5.70;2.53;;;11.90;1.00;;;;;;5136992;28;20276;-90
2023/10/06 03:20:18;;;;;;;6.05;3.08;;;12.00;1.00;;;;;;5138264;28;20044;-91
2023/10/06 03:22:55;;;;;;;5.72;2.63;;;12.00;1.00;;;;;;5139597;28;20043;-92
2023/10/06 03:25:28;;;;;;;3.28;2.22;;;11.90;1.00;;;;;;5136664;28;20143;-91
2023/10/06 03:28:02;;;;;;;7.07;3.03;;;11.90;1.00;;;;;;5133527;28;20056;-92
2023/10/06 03:30:37;;;;;;;5.50;2.47;;;11.80;1.00;;;;;;5131811;28;20038;-91
2023/10/06 03:33:19;;;;;;;5.38;2.53;;;11.90;1.00;;;;;;5135211;28;20038;-92
2023/10/06 03:35:54;;;;;;;4.68;2.47;;;11.90;1.00;;;;;;5168545;28;20046;-91
2023/10/06 03:38:27;;;;;;;3.67;2.60;;;11.80;1.00;;;;;;5135494;28;20038;-90
2023/10/06 03:41:11;;;;;;;2.60;1.83;;;11.70;1.00;;;;;;5152927;28;20056;-91
2023/10/06 03:43:55;;;;;;;5.30;2.55;;;11.70;1.00;;;;;;5156124;28;20049;-90
2023/10/06 03:46:35;;;;;;;3.03;2.17;;;11.60;1.00;;;;;;5150237;28;20042;-90
2023/10/06 03:49:07;;;;;;;5.20;2.75;;;11.60;1.00;;;;;;5167276;28;20040;-91
2023/10/06 03:51:45;;;;;;;4.28;2.40;;;11.60;1.00;;;;;;5151711;28;20042;-89
2023/10/06 03:54:17;;;;;;;6.22;2.92;;;11.60;1.00;;;;;;5133963;28;20034;-88
2023/10/06 03:56:54;;;;;;;6.88;2.17;;;11.60;1.00;;;;;;5153105;28;20038;-92
2023/10/06 03:59:28;;;;;;;8.45;2.20;;;11.60;1.00;;;;;;5168843;28;20050;-90
2023/10/06 04:02:03;;;;;;;4.93;2.70;;;11.70;1.00;;;;;;5146632;28;20046;-90
2023/10/06 04:04:39;;;;;;;3.42;2.30;;;11.70;1.00;;;;;;5126223;28;20026;-89
2023/10/06 04:07:13;;;;;;;5.78;2.85;;;11.70;1.00;;;;;;5126165;28;20168;-90
2023/10/06 04:09:49;;;;;;;;;;;11.70;1.00;;;;;;5141781;28;20038;-90
2023/10/06 04:12:33;;;;;;;3.72;2.10;;;11.70;1.00;;;;;;5180251;22;19925;-66
2023/10/06 04:15:10;;;;;;;6.28;3.40;;;11.70;1.00;;;;;;5174871;28;20041;-67
2023/10/06 04:17:42;;;;;;;6.65;2.72;;;11.80;1.00;;;;;;5159213;28;20063;-67
2023/10/06 04:20:13;;;;;;;6.28;2.75;;;11.90;1.00;;;;;;5175273;28;20045;-68
2023/10/06 04:22:50;;;;;;;5.97;2.55;;;11.90;1.00;;;;;;5158863;28;20378;-68
2023/10/06 04:25:23;;;;;;;5.05;2.45;;;12.00;1.00;;;;;;5160819;28;20055;-68
2023/10/06 04:28:01;;;;;;;3.58;2.33;;;12.00;1.00;;;;;;5164440;28;20330;-68
2023/10/06 04:30:34;;;;;;;6.25;2.00;;;11.90;1.00;;;;;;5174332;28;20034;-68
2023/10/06 04:33:05;;;;;;;4.22;2.22;;;11.90;1.00;;;;;;5193501;28;20541;-68
2023/10/06 04:35:47;;;;;;;5.70;2.63;;;11.90;1.00;;;;;;5191975;28;20034;-68
2023/10/06 04:38:21;;;;;;;5.40;2.15;;;11.80;1.00;;;;;;5175983;28;20060;-68
2023/10/06 04:40:58;;;;;;;4.60;2.67;;;11.70;1.00;;;;;;5157863;28;20067;-68
2023/10/06 04:43:30;;;;;;;5.72;2.47;;;11.70;1.00;;;;;;5145563;28;20060;-66
2023/10/06 04:46:06;;;;;;;4.20;2.45;;;11.70;1.00;;;;;;5148004;28;20502;-68
2023/10/06 04:48:43;;;;;;;5.68;3.15;;;11.60;1.00;;;;;;5174561;28;20052;-65
2023/10/06 04:51:17;;;;;;;4.35;2.35;;;11.60;1.00;;;;;;5154178;28;20320;-66
2023/10/06 04:53:48;;;;;;;3.63;2.47;;;11.50;1.00;;;;;;5172704;28;20056;-66
2023/10/06 04:56:23;;;;;;;5.55;2.78;;;11.50;1.00;;;;;;5168051;28;20045;-66
2023/10/06 04:58:55;;;;;;;6.57;2.53;;;11.50;1.00;;;;;;5190537;28;20029;-66
2023/10/06 05:01:32;;;;;;;3.78;2.22;;;11.50;1.00;;;;;;5143613;28;20040;-67
2023/10/06 05:04:08;;;;;;;3.65;1.90;;;11.50;1.00;;;;;;5157980;28;20056;-66
2023/10/06 05:06:39;;;;;;;4.78;2.15;;;11.50;1.00;;;;;;5169117;28;20032;-67
2023/10/06 05:09:13;;;;;;;6.72;2.55;;;11.50;1.00;;;;;;5174429;28;20335;-67
2023/10/06 05:11:47;;;;;;;3.97;2.58;;;11.50;1.00;;;;;;5159011;28;20253;-66
2023/10/06 05:14:18;;;;;;;4.70;2.20;;;11.50;1.00;;;;;;5171203;28;20040;-66
2023/10/06 05:16:51;;;;;;;3.60;2.63;;;11.50;1.00;;;;;;5158488;28;20064;-65
2023/10/06 05:19:24;;;;;;;4.95;2.20;;;11.60;1.00;;;;;;5171353;28;20051;-65
2023/10/06 05:21:59;;;;;;;7.75;2.63;;;11.50;1.00;;;;;;5193400;28;20563;-67
2023/10/06 05:24:32;;;;;;;5.93;2.50;;;11.50;1.00;;;;;;5192052;28;20052;-67
2023/10/06 05:27:06;;;;;;;6.93;2.55;;;11.60;1.00;;;;;;5199445;28;20053;-67
2023/10/06 05:29:41;;;;;;;4.68;2.88;;;11.60;1.00;;;;;;5183639;28;20052;-66
2023/10/06 05:32:13;;;;;;;;;;;11.60;1.00;;;;;;5193490;28;20120;-65
2023/10/06 05:34:49;;;;;;;4.88;2.03;;;11.60;1.00;;;;;;5182682;28;20230;-68
2023/10/06 05:37:25;;;;;;;8.23;2.95;;;11.70;1.00;;;;;;5173016;28;20180;-69
2023/10/06 05:39:59;;;;;;;6.55;2.95;;;11.70;1.00;;;;;;5171080;28;20056;-68
2023/10/06 05:42:33;;;;;;;3.45;2.42;;;11.80;1.00;;;;;;5170510;28;20463;-66
2023/10/06 05:45:15;;;;;;;3.92;2.28;;;11.90;1.00;;;;;;5187703;28;20045;-68
2023/10/06 05:47:51;;;;;;;2.47;1.95;;;12.00;1.00;;;;;;5175193;28;20405;-67
2023/10/06 05:50:35;;;;;;;8.15;2.42;;;12.10;1.00;;;;;;5191964;28;20029;-66
2023/10/06 05:53:12;;;;;;;2.83;1.92;;;12.10;1.00;;;;;;5192188;28;20037;-66
2023/10/06 05:55:47;;;;;;;6.05;2.80;;;12.20;1.00;;;;;;5188340;28;20048;-67
2023/10/06 05:58:23;;;;;;;6.93;2.83;;;12.40;99.90;;;;;;5188600;28;20037;-66
2023/10/06 06:01:28;;;;;;;3.33;2.38;;;12.50;99.90;;;;;;5196539;28;20228;-66
2023/10/06 06:03:53;;;;;;;4.40;2.10;;;12.60;99.90;;;;;;5183844;28;20041;-65
2023/10/06 06:06:27;;;;;;;2.55;2.22;;;12.80;99.90;;;;;;5177335;28;20048;-67
2023/10/06 06:08:59;;;;;;;3.33;1.73;;;12.90;54.70;;;;;;5178100;28;20037;-64
2023/10/06 06:11:36;;;;;;;5.20;2.58;;;13.00;1.00;;;;;;5178085;28;20403;-64
2023/10/06 06:14:10;;;;;;;5.75;1.98;;;13.10;1.00;;;;;;5176631;28;20052;-67
2023/10/06 06:16:44;;;;;;;2.95;2.40;;;13.20;1.00;;;;;;5169571;28;20325;-67
2023/10/06 06:19:20;;;;;;;4.50;2.25;;;13.30;1.00;;;;;;5154209;28;20042;-65
2023/10/06 06:21:57;;;;;;;3.63;1.92;;;13.40;1.00;;;;;;5154317;28;20322;-66
2023/10/06 06:24:28;;;;;;;3.22;1.98;;;13.40;1.00;;;;;;5157477;28;20045;-63
2023/10/06 06:27:02;;;;;;;6.78;2.55;;;13.60;99.90;;;;;;5158655;28;20052;-66
2023/10/06 06:29:39;;;;;;;6.72;2.97;;;13.60;99.90;;;;;;5158326;28;20379;-65
2023/10/06 06:32:14;;;;;;;3.75;2.17;;;13.60;99.90;;;;;;5133800;28;20046;-66
2023/10/06 06:34:45;;;;;;;;;;;13.60;99.90;;;;;;5172028;28;20039;-65
2023/10/06 06:37:16;;;;;;;7.32;2.85;;;13.70;99.90;;;;;;5161024;28;19913;-65
2023/10/06 06:39:51;;;;;;;5.32;2.75;;;13.70;99.90;;;;;;5171117;28;20033;-66
2023/10/06 06:42:22;;;;;;;;;;;13.80;1.00;;;;;;5156063;28;20034;-66
2023/10/06 06:45:00;;;;;;;3.50;2.33;;;13.90;1.00;;;;;;5162987;28;19920;-66
2023/10/06 06:47:32;;;;;;;4.72;2.50;;;13.90;1.00;;;;;;5171636;28;20076;-66
2023/10/06 06:50:06;;;;;;;4.95;2.55;;;13.90;1.00;;;;;;5193037;28;20230;-67
2023/10/06 06:52:40;;;;;;;6.10;2.60;;;14.00;1.00;;;;;;5158808;28;20483;-66
2023/10/06 06:55:12;;;;;;;4.00;2.17;;;14.10;1.00;;;;;;5172679;28;20045;-64
2023/10/06 06:57:53;;;;;;;2.58;1.95;;;14.10;99.90;;;;;;5155805;28;20330;-65
2023/10/06 07:00:27;;;;;;;3.35;2.20;;;14.20;99.90;;;;;;5163589;28;20328;-64
2023/10/06 07:02:58;;;;;;;4.85;1.88;;;14.30;99.90;;;;;;5191658;28;20356;-65
2023/10/06 07:05:30;;;;;;;4.20;2.55;;;14.40;99.90;;;;;;5174526;28;20318;-65
2023/10/06 07:08:05;;;;;;;3.20;2.00;;;14.30;99.90;;;;;;5175218;28;20044;-65
2023/10/06 07:10:42;;;;;;;4.43;2.08;;;14.50;99.90;;;;;;5174392;28;20236;-65
2023/10/06 07:13:17;;;;;;;3.75;2.70;;;14.40;99.90;;;;;;5210458;28;20245;-65
2023/10/06 07:15:50;;;;;;;;;;;14.50;62.20;;;;;;5191582;28;20037;-64
2023/10/06 07:18:23;;;;;;;3.40;2.30;;;14.50;99.90;;;;;;5178583;28;19912;-66
2023/10/06 07:20:57;;;;;;;5.05;2.78;;;14.60;99.50;;;;;;5183247;28;20257;-65
2023/10/06 07:23:29;;;;;;;2.38;1.88;;;14.60;1.00;;;;;;5193240;28;20029;-66
2023/10/06 07:26:01;;;;;;;5.53;2.63;;;14.60;1.00;;;;;;5140370;28;20517;-65
2023/10/06 07:28:35;;;;;;;5.20;2.28;;;14.60;1.00;;;;;;5205932;28;20110;-66
2023/10/06 07:31:13;;;;;;;;;;;14.80;1.00;;;;;;5188819;28;20055;-66
2023/10/06 07:33:44;;;;;;;5.38;2.20;;;14.90;1.00;;;;;;5181192;28;19928;-66
2023/10/06 07:36:19;;;;;;;3.58;2.10;;;14.90;1.00;;;;;;5191656;28;20477;-67
2023/10/06 07:38:50;;;;;;;3.78;2.10;;;15.00;1.00;;;;;;5191490;28;20039;-66
2023/10/06 07:41:23;;;;;;;4.22;1.98;;;15.10;1.00;;;;;;5159846;28;20344;-67
2023/10/06 07:43:58;;;;;;;3.72;2.38;;;15.20;1.00;;;;;;5192045;28;20031;-66
2023/10/06 07:46:31;;;;;;;3.45;1.85;;;15.20;1.00;;;;;;5206761;28;20032;-68
2023/10/06 07:49:04;;;;;;;4.95;2.30;;;15.30;1.00;;;;;;5165685;28;20128;-66
2023/10/06 07:51:43;;;;;;;5.15;2.60;;;15.40;1.00;;;;;;5191636;28;20044;-68
2023/10/06 07:54:17;;;;;;;2.33;1.65;;;15.50;1.00;;;;;;5160939;28;20237;-67
2023/10/06 07:56:49;;;;;;;3.58;2.22;;;15.70;1.00;;;;;;5176339;28;20040;-66
2023/10/06 07:59:25;;;;;;;2.53;1.83;;;15.70;1.00;;;;;;5159571;28;20053;-67
2023/10/06 08:01:57;;;;;;;3.95;2.20;;;15.60;99.90;;;;;;5205913;28;20025;-66
2023/10/06 08:04:29;;;;;;;4.25;2.30;;;15.70;99.90;;;;;;5173739;28;20037;-67
2023/10/06 08:07:00;;;;;;;5.95;2.53;;;15.80;99.90;;;;;;5169058;28;20029;-67
2023/10/06 08:09:32;;;;;;;3.58;2.17;;;15.80;99.90;;;;;;5211858;28;20031;-66
2023/10/06 08:12:09;;;;;;;2.78;1.90;;;16.00;99.90;;;;;;5175513;28;20049;-67
2023/10/06 08:14:40;;;;;;;4.00;2.15;;;16.30;99.90;;;;;;5178357;28;20041;-66
2023/10/06 08:17:12;;;;;;;4.82;2.58;;;16.10;1.00;;;;;;5172386;28;20214;-66
2023/10/06 08:19:43;;;;;;;3.97;2.28;;;16.30;1.00;;;;;;5210830;28;20032;-67
2023/10/06 08:22:17;;;;;;;5.78;2.30;;;16.40;1.00;;;;;;5206218;28;20035;-65
2023/10/06 08:24:54;;;;;;;2.72;1.92;;;16.50;1.00;;;;;;5191886;28;20557;-65
2023/10/06 08:27:45;;;;;;;5.15;2.10;;;16.50;1.00;;;;;;5207146;28;20036;-64
2023/10/06 08:30:22;;;;;;;2.97;2.13;;;16.60;1.00;;;;;;5190777;28;20029;-65
2023/10/06 08:32:56;;;;;;;2.15;1.73;;;16.50;1.00;;;;;;5211365;28;20058;-65
2023/10/06 08:35:30;;;;;;;;;;;16.80;99.90;;;;;;5177005;28;20463;-64
2023/10/06 08:38:10;;;;;;;4.65;2.15;;;17.00;99.90;;;;;;5171317;28;19929;-65
2023/10/06 08:40:44;;;;;;;6.28;2.30;;;16.80;99.90;;;;;;5190276;28;20147;-66
2023/10/06 08:43:19;;;;;;;;;;;16.60;99.90;;;;;;5210903;28;20206;-65
2023/10/06 08:45:51;;;;;;;2.80;1.88;;;16.70;99.90;;;;;;5174048;28;19915;-65
2023/10/06 08:48:32;;;;;;;3.88;1.83;;;16.90;99.90;;;;;;5193592;28;20036;-65
2023/10/06 08:51:07;;;;;;;4.07;1.70;;;17.10;99.90;;;;;;5160489;28;20248;-65
2023/10/06 08:53:44;;;;;;;4.60;2.17;;;17.40;99.90;;;;;;5190952;28;20174;-65
2023/10/06 08:56:17;;;;;;;5.13;1.92;;;17.70;99.90;;;;;;5175428;28;20279;-64
2023/10/06 08:58:54;;;;;;;4.85;2.28;;;17.90;62.70;;;;;;5190712;28;20032;-65
2023/10/06 09:01:32;;;;;;;4.88;1.65;;;17.90;29.90;;;;;;5203278;28;20333;-65
2023/10/06 09:04:04;;;;;;;5.18;1.85;;;18.00;1.00;;;;;;5179745;28;20041;-65
2023/10/06 09:06:38;;;;;;;2.53;1.50;;;18.10;1.00;;;;;;5210803;28;20171;-65
2023/10/06 09:09:33;;;;;;;3.42;1.92;;;18.00;1.00;;;;;;5213615;28;20043;-66
2023/10/06 09:12:13;;;;;;;4.13;1.80;;;18.10;1.00;;;;;;5188130;28;20044;-66
2023/10/06 09:15:12;;;;;;;4.30;1.90;;;18.50;1.00;;;;;;5139761;28;20079;-67
2023/10/06 09:17:46;;;;;;;3.55;2.15;;;18.50;1.00;;;;;;5162317;28;20045;-68
2023/10/06 09:20:32;;;;;;;4.50;2.42;;;18.60;1.00;;;;;;5171060;28;20143;-67
2023/10/06 09:23:06;;;;;;;3.30;2.10;;;18.80;1.00;;;;;;5159305;28;20025;-67
2023/10/06 09:25:47;;;;;;;;;;;18.80;1.00;;;;;;5181566;28;20068;-66
2023/10/06 09:28:21;;;;;;;4.60;2.03;;;19.20;1.00;;;;;;5174386;28;19915;-67
2023/10/06 09:31:01;;;;;;;3.95;2.20;;;18.90;99.90;;;;;;5153223;28;20221;-67
2023/10/06 09:33:35;;;;;;;8.73;2.80;;;18.90;99.90;;;;;;5169106;28;20032;-67
2023/10/06 09:36:17;;;;;;;2.80;2.10;;;18.90;99.90;;;;;;5189099;28;20044;-67
2023/10/06 09:38:48;;;;;;;4.45;2.13;;;19.00;99.90;;;;;;5175790;28;20039;-65
2023/10/06 09:41:29;;;;;;;5.85;1.92;;;19.10;99.90;;;;;;5169689;28;20056;-65
2023/10/06 09:44:08;;;;;;;4.60;2.45;;;19.00;99.90;;;;;;5160652;28;20041;-65
2023/10/06 09:46:42;;;;;;;4.55;1.92;;;19.30;99.90;;;;;;5148457;28;20266;-66
2023/10/06 09:49:21;;;;;;;4.65;1.83;;;19.80;99.90;;;;;;5175384;28;20038;-67
2023/10/06 09:51:56;;;;;;;3.85;2.03;;;20.20;99.90;;;;;;5161556;28;20029;-65
2023/10/06 09:54:29;;;;;;;3.08;1.80;;;20.10;99.90;;;;;;5154288;28;20053;-66
2023/10/06 09:57:03;;;;;;;5.40;2.45;;;20.20;99.90;;;;;;5158072;28;20231;-66
2023/10/06 09:59:35;;;;;;;;;;;20.30;99.90;;;;;;5190921;28;20162;-66
2023/10/06 10:02:11;;;;;;;4.55;2.17;;;20.40;99.90;;;;;;5183377;28;19909;-66
2023/10/06 10:04:46;;;;;;;3.88;1.88;;;20.70;83.60;;;;;;5135941;28;20316;-66
2023/10/06 10:07:19;;;;;;;6.05;2.47;;;21.20;1.00;;;;;;5191181;28;20302;-66
2023/10/06 10:09:52;;;;;;;6.65;3.13;;;21.80;1.00;;;;;;5173455;28;20041;-66
2023/10/06 10:13:19;;;;;;;5.65;2.17;;;21.70;1.00;;;;;;5172930;28;20349;-66
2023/10/06 10:16:19;;;;;;;4.78;2.38;;;21.70;1.00;;;;;;5170687;28;20055;-67
2023/10/06 10:19:08;;;;;;;3.88;1.85;;;22.20;1.00;;;;;;5173430;28;20029;-67
2023/10/06 10:21:42;;;;;;;3.90;2.67;;;22.20;1.00;;;;;;5173264;28;20021;-67
2023/10/06 10:24:20;;;;;;;4.35;1.98;;;22.70;1.00;;;;;;5153587;28;20419;-66
2023/10/06 10:26:53;;;;;;;4.30;2.42;;;22.60;1.00;;;;;;5156502;28;20042;-67
2023/10/06 10:29:30;;;;;;;3.97;1.92;;;23.30;1.00;;;;;;5153973;28;20149;-67
2023/10/06 10:32:17;;;;;;;6.40;2.13;;;24.50;1.00;;;;;;5184666;28;20045;-66
2023/10/06 10:35:13;;;;;;;4.90;2.75;;;24.80;1.00;;;;;;5175923;28;20306;-67
2023/10/06 10:38:07;;;;;;;5.55;2.70;;;25.50;1.00;;;;;;5172902;28;20060;-67
2023/10/06 10:40:48;;;;;;;7.03;2.30;;;24.50;1.00;;;;;;5139746;28;20139;-67
2023/10/06 10:43:21;;;;;;;5.05;2.88;;;24.30;1.00;;;;;;5163379;28;20249;-66
2023/10/06 10:45:57;;;;;;;4.93;2.55;;;24.00;1.00;;;;;;5143764;28;20038;-67
2023/10/06 10:48:37;;;;;;;8.07;2.33;;;24.40;1.00;;;;;;5171521;28;20021;-67
2023/10/06 10:51:12;;;;;;;3.92;2.30;;;24.70;1.00;;;;;;5174879;28;20067;-68
2023/10/06 10:53:49;;;;;;;4.85;2.47;;;24.20;1.00;;;;;;5176069;28;20029;-67
2023/10/06 10:56:36;;;;;;;5.90;1.98;;;23.70;1.00;;;;;;5172574;28;20056;-68
2023/10/06 10:59:11;;;;;;;6.78;2.30;;;23.90;1.00;;;;;;5170479;28;20222;-68
2023/10/06 11:01:51;;;;;;;6.47;2.30;;;25.40;1.00;;;;;;5154600;28;20056;-69
2023/10/06 11:07:11;;;;;;;3.10;1.80;;;24.70;1.00;;;;;;5146549;28;20053;-68
2023/10/06 11:09:52;;;;;;;4.18;2.38;;;25.10;1.00;;;;;;5180406;28;20025;-67
2023/10/06 11:12:30;;;;;;;4.10;2.10;;;25.40;1.00;;;;;;5183130;28;20151;-68
2023/10/06 11:15:14;;;;;;;5.70;2.13;;;26.00;1.00;;;;;;5209285;28;20033;-67
2023/10/06 11:17:48;;;;;;;5.88;2.40;;;25.40;1.00;;;;;;5172783;28;20210;-68
2023/10/06 11:20:22;;;;;;;6.60;2.15;;;25.60;1.00;;;;;;5180547;28;20041;-69
2023/10/06 11:23:00;;;;;;;4.57;2.38;;;26.60;1.00;;;;;;5181207;28;20362;-68
2023/10/06 11:25:36;;;;;;;4.28;2.00;;;27.30;1.00;;;;;;5164787;28;20034;-68
2023/10/06 11:28:08;;;;;;;2.47;1.73;;;26.50;1.00;;;;;;5182948;28;20140;-69
2023/10/06 11:30:43;;;;;;;6.13;2.30;;;25.70;1.00;;;;;;5154124;28;20036;-68
2023/10/06 11:33:19;;;;;;;5.20;2.17;;;25.30;1.00;;;;;;5174619;28;20033;-69
2023/10/06 11:36:00;;;;;;;3.92;2.30;;;25.60;1.00;;;;;;5194499;28;20328;-68
2023/10/06 11:38:36;;;;;;;5.18;2.63;;;25.40;1.00;;;;;;5176757;28;20214;-68
2023/10/06 11:41:12;;;;;;;5.82;2.38;;;24.90;1.00;;;;;;5193502;28;20550;-68
2023/10/06 11:43:58;;;;;;;4.45;2.47;;;25.50;1.00;;;;;;5156462;28;20501;-68
2023/10/06 11:46:52;;;;;;;5.57;2.17;;;26.40;1.00;;;;;;5187185;28;20100;-69
2023/10/06 11:49:30;;;;;;;4.23;2.10;;;26.80;1.00;;;;;;5173583;28;20345;-69
2023/10/06 11:52:02;;;;;;;6.05;2.70;;;26.10;1.00;;;;;;5166278;28;21580;-68
2023/10/06 11:54:43;;;;;;;4.53;2.63;;;26.20;1.00;;;;;;5206541;28;20051;-70
2023/10/06 11:57:19;;;;;;;16.27;2.58;;;27.50;1.00;;;;;;5193275;28;20025;-67
2023/10/06 11:59:57;;;;;;;3.80;2.03;;;29.30;1.00;;;;;;5159434;28;20439;-69
2023/10/06 12:02:51;;;;;;;5.13;2.15;;;30.50;1.00;;;;;;5176455;28;20033;-70
2023/10/06 12:05:26;;;;;;;4.65;1.73;;;31.20;1.00;;;;;;5173190;28;20310;-68
2023/10/06 12:08:12;;;;;;;6.18;2.50;;;31.40;29.60;;;;;;5189463;28;20037;-68
2023/10/06 12:10:50;;;;;;;6.63;2.35;;;30.40;1.00;;;;;;5170127;28;20032;-69
2023/10/06 12:13:24;;;;;;;4.20;2.40;;;29.00;1.00;;;;;;5201525;28;20044;-69
2023/10/06 12:15:55;;;;;;;6.18;2.53;;;27.80;1.00;;;;;;5146726;28;20044;-68
2023/10/06 12:18:29;;;;;;;6.80;2.40;;;27.50;1.00;;;;;;5192371;28;20035;-68
2023/10/06 12:21:06;;;;;;;4.80;2.47;;;27.80;1.00;;;;;;5188996;28;20041;-68
2023/10/06 12:23:44;;;;;;;5.28;2.30;;;27.60;1.00;;;;;;5190341;28;20320;-68
2023/10/06 12:26:15;;;;;;;4.00;2.00;;;27.90;1.00;;;;;;5189859;28;20044;-68
2023/10/06 12:28:48;;;;;;;3.75;1.92;;;27.70;1.00;;;;;;5191327;28;20643;-67
2023/10/06 12:31:22;;;;;;;2.88;1.90;;;28.00;1.00;;;;;;5196389;28;20039;-68
2023/10/06 12:33:56;;;;;;;4.30;2.33;;;27.10;1.00;;;;;;5202023;28;20040;-69
2023/10/06 12:36:31;;;;;;;6.18;2.40;;;26.40;1.00;;;;;;5192849;28;20041;-68
2023/10/06 12:39:05;;;;;;;4.05;2.47;;;26.80;1.00;;;;;;5183734;28;20029;-68
2023/10/06 12:41:41;;;;;;;6.18;2.70;;;27.60;1.00;;;;;;5153340;28;20028;-68
2023/10/06 12:44:18;;;;;;;4.28;2.10;;;28.90;1.00;;;;;;5203453;28;20025;-69
2023/10/06 12:46:49;;;;;;;3.13;1.98;;;29.40;1.00;;;;;;5147810;28;20060;-68
2023/10/06 12:49:31;;;;;;;3.95;2.50;;;29.80;1.00;;;;;;5189801;28;20031;-68
2023/10/06 12:52:08;;;;;;;4.88;2.42;;;28.90;1.00;;;;;;5209423;28;20039;-68
2023/10/06 12:54:41;;;;;;;5.05;2.30;;;27.60;1.00;;;;;;5183897;28;20229;-68
2023/10/06 12:57:18;;;;;;;5.60;2.33;;;27.10;1.00;;;;;;5190604;28;20037;-69
2023/10/06 12:59:49;;;;;;;5.05;2.28;;;27.70;1.00;;;;;;5183879;28;20525;-69
2023/10/06 13:02:24;;;;;;;4.70;2.05;;;28.30;1.00;;;;;;5203812;28;20033;-68
2023/10/06 13:04:57;;;;;;;5.22;2.22;;;27.60;1.00;;;;;;5203027;28;20067;-67
2023/10/06 13:07:31;;;;;;;3.72;1.92;;;27.00;1.00;;;;;;5186158;28;20144;-67
2023/10/06 13:10:07;;;;;;;6.07;1.80;;;27.80;1.00;;;;;;5185426;28;20053;-67
2023/10/06 13:12:40;;;;;;;4.40;2.25;;;27.70;1.00;;;;;;5182588;28;20041;-68
2023/10/06 13:15:19;;;;;;;3.28;2.20;;;28.50;1.00;;;;;;5164186;28;20033;-68
2023/10/06 13:17:51;;;;;;;4.55;2.17;;;28.50;1.00;;;;;;5171181;28;20068;-68
2023/10/06 13:20:22;;;;;;;3.95;2.15;;;28.30;1.00;;;;;;5182690;28;20045;-67
2023/10/06 13:22:54;;;;;;;4.85;2.00;;;28.60;1.00;;;;;;5188974;28;20389;-67
2023/10/06 13:25:29;;;;;;;4.53;3.13;;;29.00;99.90;;;;;;5189538;28;20025;-68
2023/10/06 13:28:17;;;;;;;4.60;2.00;;;28.30;1.00;;;;;;5188345;28;20043;-67
2023/10/06 13:30:51;;;;;;;3.33;2.05;;;27.90;1.00;;;;;;5185953;28;20348;-67
2023/10/06 13:33:25;;;;;;;4.65;2.20;;;28.00;1.00;;;;;;5186056;28;20349;-67
2023/10/06 13:35:57;;;;;;;4.07;2.00;;;28.50;99.90;;;;;;5197750;28;20312;-67
2023/10/06 13:38:34;;;;;;;4.65;2.10;;;28.20;99.90;;;;;;5157664;28;20057;-66
2023/10/06 13:41:11;;;;;;;4.18;2.40;;;27.30;1.00;;;;;;5186621;28;20045;-67
2023/10/06 13:43:42;;;;;;;4.68;1.92;;;26.70;1.00;;;;;;5170435;28;20415;-67
2023/10/06 13:46:17;;;;;;;5.75;2.50;;;26.50;1.00;;;;;;5186147;28;20017;-67
2023/10/06 13:48:48;;;;;;;3.28;2.03;;;26.50;1.00;;;;;;5172644;28;20449;-66
2023/10/06 13:51:21;;;;;;;4.32;2.17;;;25.80;1.00;;;;;;5173001;28;20033;-67
2023/10/06 13:53:55;;;;;;;4.10;2.00;;;25.90;1.00;;;;;;5170534;28;20051;-67
2023/10/06 13:56:31;;;;;;;;;;;25.80;1.00;;;;;;5176180;28;20125;-67